Time;durP1;ratioP1;P1;durP2;ratioP2;P2;SDS_P1;SDS_P2;PMS_P1;PMS_P2;Temp;Humidity;BMP_temperature;BMP_pressure;BME280_temperature;BME280_humidity;BME280_pressure;Samples;Min_cycle;Max_cycle;Signal;HPM_P1;HPM_P2
2024/03/04 00:01:04;;;;;;;26.13;16.85;;;16.10;73.40;;;;;;4211311;27;20051;-45
2024/03/04 00:03:46;;;;;;;25.13;16.58;;;16.00;73.40;;;;;;4222024;28;22000;-49
2024/03/04 00:06:27;;;;;;;23.40;16.75;;;16.00;73.40;;;;;;4222405;28;20171;-44
2024/03/04 00:09:09;;;;;;;24.67;16.67;;;16.00;73.40;;;;;;4209135;28;20082;-44
2024/03/04 00:11:50;;;;;;;;;;;16.00;73.40;;;;;;4208374;27;20177;-47
2024/03/04 00:14:32;;;;;;;23.80;16.67;;;16.00;73.10;;;;;;4210112;27;20058;-46
2024/03/04 00:17:13;;;;;;;28.00;17.58;;;15.90;74.00;;;;;;4211364;28;20097;-47
2024/03/04 00:19:54;;;;;;;26.55;16.92;;;15.90;73.20;;;;;;4205516;28;20531;-49
2024/03/04 00:22:35;;;;;;;24.83;16.85;;;15.90;72.10;;;;;;4222291;27;20108;-46
2024/03/04 00:25:17;;;;;;;27.05;17.55;;;15.90;71.90;;;;;;4211404;28;20460;-47
2024/03/04 00:27:58;;;;;;;23.48;16.25;;;15.80;72.10;;;;;;4208921;27;20054;-43
2024/03/04 00:30:41;;;;;;;26.75;18.42;;;15.80;72.60;;;;;;4204660;28;20077;-50
2024/03/04 00:33:22;;;;;;;26.20;16.70;;;15.80;73.00;;;;;;4202383;27;20062;-48
2024/03/04 00:36:05;;;;;;;27.00;19.23;;;15.80;73.40;;;;;;4189061;28;20575;-44
2024/03/04 00:38:46;;;;;;;31.20;18.85;;;15.80;73.60;;;;;;4205807;28;20499;-45
2024/03/04 00:41:29;;;;;;;27.23;19.48;;;15.80;73.80;;;;;;4188794;28;20051;-44
2024/03/04 00:44:10;;;;;;;27.92;18.85;;;15.80;74.10;;;;;;4202286;28;20055;-44
2024/03/04 00:46:54;;;;;;;29.58;21.00;;;15.80;74.00;;;;;;4205588;28;20093;-46
2024/03/04 00:49:35;;;;;;;29.42;20.25;;;15.80;74.20;;;;;;4205519;28;20100;-46
2024/03/04 00:52:17;;;;;;;28.33;18.77;;;15.70;74.20;;;;;;4204033;28;20120;-47
2024/03/04 00:54:58;;;;;;;32.33;20.98;;;15.80;73.60;;;;;;4220794;27;20047;-49
2024/03/04 00:57:39;;;;;;;31.42;21.35;;;15.70;73.50;;;;;;4215398;27;20058;-48
2024/03/04 01:00:23;;;;;;;32.17;21.15;;;15.70;73.30;;;;;;4206826;28;20057;-49
2024/03/04 01:03:06;;;;;;;34.47;21.90;;;15.70;73.10;;;;;;4215279;27;20054;-44
2024/03/04 01:05:46;;;;;;;34.97;22.95;;;15.70;72.90;;;;;;4186369;28;20048;-49
2024/03/04 01:08:28;;;;;;;35.28;23.42;;;15.70;73.10;;;;;;4189502;28;20504;-46
2024/03/04 01:11:09;;;;;;;;;;;15.70;73.20;;;;;;4187534;28;20051;-44
2024/03/04 01:13:49;;;;;;;38.45;23.20;;;15.70;73.10;;;;;;4219829;27;19931;-44
2024/03/04 01:16:33;;;;;;;31.92;21.58;;;15.60;73.40;;;;;;4204930;28;20141;-49
2024/03/04 01:19:16;;;;;;;36.63;23.08;;;15.60;73.20;;;;;;4222189;27;20050;-44
2024/03/04 01:21:57;;;;;;;40.47;24.10;;;15.60;72.80;;;;;;4204656;28;20051;-44
2024/03/04 01:24:38;;;;;;;41.15;24.73;;;15.60;72.60;;;;;;4216948;27;20494;-43
2024/03/04 01:27:20;;;;;;;41.58;24.70;;;15.60;73.00;;;;;;4222122;27;20051;-47
2024/03/04 01:30:01;;;;;;;41.72;24.95;;;15.50;73.50;;;;;;4221451;28;20055;-45
2024/03/04 01:32:42;;;;;;;38.85;24.27;;;15.50;73.80;;;;;;4212932;28;20058;-47
2024/03/04 01:35:25;;;;;;;41.88;26.23;;;15.50;74.10;;;;;;4221178;27;20054;-45
2024/03/04 01:38:07;;;;;;;41.95;25.38;;;15.50;74.10;;;;;;4221637;27;20066;-43
2024/03/04 01:40:48;;;;;;;41.13;25.63;;;15.50;74.20;;;;;;4221878;27;20136;-49
2024/03/04 01:43:28;;;;;;;44.72;25.42;;;15.50;74.20;;;;;;4221024;27;20463;-48
2024/03/04 01:46:10;;;;;;;44.28;26.75;;;15.50;75.50;;;;;;4221764;27;20051;-48
2024/03/04 01:48:51;;;;;;;;;;;15.50;75.10;;;;;;4205474;28;20059;-50
2024/03/04 01:51:34;;;;;;;43.20;25.75;;;15.50;75.20;;;;;;4205160;28;19988;-49
2024/03/04 01:54:15;;;;;;;45.92;26.42;;;15.50;76.90;;;;;;4220557;28;20172;-48
2024/03/04 01:56:57;;;;;;;43.40;25.45;;;15.50;75.90;;;;;;4203863;28;20050;-46
2024/03/04 01:59:40;;;;;;;44.80;26.65;;;15.50;76.90;;;;;;4207212;28;20143;-44
2024/03/04 02:02:23;;;;;;;42.53;25.88;;;15.50;76.20;;;;;;4213664;27;20050;-53
2024/03/04 02:05:08;;;;;;;44.00;25.15;;;15.40;76.40;;;;;;4190087;28;20063;-51
2024/03/04 02:07:51;;;;;;;41.10;25.25;;;15.50;76.60;;;;;;4188628;28;20056;-44
2024/03/04 02:10:32;;;;;;;45.03;25.77;;;15.50;76.70;;;;;;4204214;28;20083;-44
2024/03/04 02:13:14;;;;;;;44.10;25.52;;;15.50;76.80;;;;;;4212919;28;20063;-50
2024/03/04 02:15:56;;;;;;;41.85;24.70;;;15.50;76.80;;;;;;4185435;28;20051;-52
2024/03/04 02:18:37;;;;;;;43.72;24.30;;;15.50;76.90;;;;;;4203086;28;20081;-50
2024/03/04 02:21:22;;;;;;;41.60;24.90;;;15.50;77.00;;;;;;4188088;28;20192;-49
2024/03/04 02:24:05;;;;;;;39.67;24.00;;;15.50;77.10;;;;;;4197183;28;20048;-48
2024/03/04 02:26:46;;;;;;;39.42;24.88;;;15.50;77.10;;;;;;4186295;28;20054;-48
2024/03/04 02:29:28;;;;;;;;;;;15.50;78.10;;;;;;4192312;28;20202;-49
2024/03/04 02:32:09;;;;;;;38.60;23.35;;;15.50;77.10;;;;;;4219640;28;20004;-45
2024/03/04 02:34:50;;;;;;;42.80;24.42;;;15.40;77.80;;;;;;4202122;28;20484;-45
2024/03/04 02:37:32;;;;;;;38.75;23.27;;;15.40;77.70;;;;;;4204010;28;20182;-44
2024/03/04 02:40:15;;;;;;;40.13;23.67;;;15.40;77.60;;;;;;4204558;28;20050;-44
2024/03/04 02:42:56;;;;;;;49.42;27.42;;;15.40;77.60;;;;;;4204887;28;20117;-49
2024/03/04 02:45:38;;;;;;;45.28;27.02;;;15.40;77.60;;;;;;4204712;27;20055;-51
2024/03/04 02:48:19;;;;;;;41.45;24.27;;;15.40;77.60;;;;;;4207065;27;20063;-44
2024/03/04 02:51:00;;;;;;;44.00;25.98;;;15.40;77.60;;;;;;4187023;28;20404;-45
2024/03/04 02:53:41;;;;;;;45.75;26.95;;;15.40;77.60;;;;;;4187616;28;20726;-50
2024/03/04 02:56:24;;;;;;;43.38;25.00;;;15.40;77.70;;;;;;4187240;28;20055;-47
2024/03/04 02:59:05;;;;;;;40.75;24.67;;;15.40;77.70;;;;;;4186257;28;20500;-49
2024/03/04 03:01:48;;;;;;;43.28;26.15;;;15.40;77.60;;;;;;4217926;28;20112;-46
2024/03/04 03:04:29;;;;;;;52.33;28.05;;;15.40;77.80;;;;;;4218483;28;20096;-51
2024/03/04 03:07:10;;;;;;;50.42;30.23;;;15.40;78.10;;;;;;4218586;28;20180;-44
2024/03/04 03:09:51;;;;;;;53.10;30.45;;;15.40;77.90;;;;;;4219018;28;20119;-49
2024/03/04 03:12:34;;;;;;;47.22;27.75;;;15.50;77.80;;;;;;4203849;28;20059;-47
2024/03/04 03:15:15;;;;;;;50.90;29.85;;;15.50;77.70;;;;;;4204749;28;20134;-44
2024/03/04 03:17:56;;;;;;;41.50;24.95;;;15.50;77.70;;;;;;4220250;28;20062;-48
2024/03/04 03:20:37;;;;;;;48.47;27.83;;;15.50;77.50;;;;;;4233432;27;20087;-46
2024/03/04 03:23:18;;;;;;;38.45;24.05;;;15.50;78.00;;;;;;4213248;27;20059;-44
2024/03/04 03:25:59;;;;;;;38.10;23.38;;;15.50;78.10;;;;;;4218532;28;20054;-47
2024/03/04 03:28:44;;;;;;;39.03;24.42;;;15.50;78.00;;;;;;4216607;28;20092;-49
2024/03/04 03:31:26;;;;;;;48.72;27.48;;;15.50;78.10;;;;;;4219650;28;20058;-45
2024/03/04 03:34:07;;;;;;;42.80;26.33;;;15.60;78.40;;;;;;4220043;28;20051;-43
2024/03/04 03:36:48;;;;;;;42.97;24.38;;;15.70;78.50;;;;;;4205626;28;20051;-46
2024/03/04 03:39:29;;;;;;;39.28;24.30;;;15.70;78.30;;;;;;4200418;28;20059;-47
2024/03/04 03:42:11;;;;;;;41.85;24.38;;;15.80;78.20;;;;;;4240209;27;20115;-48
2024/03/04 03:44:54;;;;;;;39.00;24.70;;;15.90;78.00;;;;;;4187676;28;20090;-49
2024/03/04 03:47:35;;;;;;;27.13;18.85;;;15.90;77.80;;;;;;4190588;28;20408;-52
2024/03/04 03:50:16;;;;;;;20.83;14.80;;;15.90;77.80;;;;;;4196726;28;20051;-49
2024/03/04 03:52:57;;;;;;;21.83;14.52;;;15.90;77.70;;;;;;4189635;28;20051;-50
2024/03/04 03:55:39;;;;;;;20.77;15.25;;;15.90;77.70;;;;;;4190217;28;20083;-46
2024/03/04 03:58:20;;;;;;;23.15;16.13;;;15.90;77.70;;;;;;4193078;28;20051;-45
2024/03/04 04:01:02;;;;;;;26.38;17.33;;;15.90;77.50;;;;;;4215218;27;20067;-43
2024/03/04 04:03:43;;;;;;;23.33;15.55;;;15.90;77.60;;;;;;4206549;28;20096;-43
2024/03/04 04:06:24;;;;;;;22.02;15.95;;;15.90;77.60;;;;;;4221263;27;20520;-48
2024/03/04 04:09:05;;;;;;;22.40;15.23;;;15.90;77.70;;;;;;4205404;28;20566;-49
2024/03/04 04:11:45;;;;;;;20.37;14.60;;;16.00;77.60;;;;;;4222890;27;20581;-47
2024/03/04 04:14:27;;;;;;;20.85;15.23;;;16.00;77.50;;;;;;4202803;28;20728;-44
2024/03/04 04:17:10;;;;;;;21.60;15.27;;;16.00;78.30;;;;;;4206197;28;20527;-45
2024/03/04 04:19:51;;;;;;;23.25;15.35;;;16.00;77.30;;;;;;4238895;27;20125;-46
2024/03/04 04:22:32;;;;;;;25.17;17.33;;;16.10;77.30;;;;;;4238545;27;20131;-46
2024/03/04 04:25:14;;;;;;;36.60;22.50;;;16.10;77.20;;;;;;4189112;28;20409;-46
2024/03/04 04:27:55;;;;;;;33.03;22.23;;;16.10;77.80;;;;;;4193204;28;20046;-49
2024/03/04 04:30:38;;;;;;;33.67;22.15;;;16.20;76.70;;;;;;4189502;28;20055;-49
2024/03/04 04:33:22;;;;;;;46.67;20.15;;;16.20;76.70;;;;;;4199053;28;20059;-48
2024/03/04 04:36:04;;;;;;;63.17;15.18;;;16.20;76.50;;;;;;4205210;28;20092;-47
2024/03/04 04:38:45;;;;;;;44.08;13.82;;;16.20;76.20;;;;;;4198682;27;20055;-48
2024/03/04 04:41:26;;;;;;;44.60;14.32;;;16.10;76.30;;;;;;4205453;28;20503;-48
2024/03/04 04:44:07;;;;;;;32.10;16.02;;;16.20;76.80;;;;;;4209617;27;20451;-45
2024/03/04 04:46:48;;;;;;;23.65;15.30;;;16.20;76.50;;;;;;4205952;28;20511;-43
2024/03/04 04:49:30;;;;;;;20.20;14.25;;;16.20;76.40;;;;;;4188009;28;20086;-45
2024/03/04 04:52:11;;;;;;;23.95;13.68;;;16.20;76.40;;;;;;4219275;28;20177;-48
2024/03/04 04:54:53;;;;;;;24.05;13.60;;;16.20;76.40;;;;;;4222139;27;20051;-46
2024/03/04 04:57:33;;;;;;;25.30;14.55;;;16.20;76.30;;;;;;4204413;28;20093;-46
2024/03/04 05:00:16;;;;;;;25.50;14.75;;;16.20;76.40;;;;;;4205591;28;20059;-47
2024/03/04 05:02:57;;;;;;;31.35;14.70;;;16.20;76.50;;;;;;4207172;28;20121;-49
2024/03/04 05:05:39;;;;;;;38.30;15.05;;;16.10;76.70;;;;;;4205014;28;20067;-43
2024/03/04 05:08:21;;;;;;;32.80;15.70;;;16.10;76.80;;;;;;4204678;28;20047;-49
2024/03/04 05:11:02;;;;;;;40.92;16.33;;;16.10;76.70;;;;;;4238124;27;20054;-44
2024/03/04 05:13:43;;;;;;;45.58;16.25;;;16.10;76.70;;;;;;4212461;27;20055;-44
2024/03/04 05:16:24;;;;;;;38.95;17.02;;;16.10;76.90;;;;;;4208658;27;20063;-46
2024/03/04 05:19:05;;;;;;;53.25;14.50;;;16.10;76.80;;;;;;4187860;28;20047;-46
2024/03/04 05:21:47;;;;;;;52.67;16.13;;;16.20;76.70;;;;;;4187852;28;20134;-43
2024/03/04 05:24:28;;;;;;;57.83;15.95;;;16.20;76.60;;;;;;4202326;28;20055;-44
2024/03/04 05:27:09;;;;;;;49.45;17.40;;;16.20;76.60;;;;;;4209046;27;20460;-45
2024/03/04 05:29:50;;;;;;;57.53;15.63;;;16.20;76.80;;;;;;4204753;28;20130;-47
2024/03/04 05:32:31;;;;;;;;;;;16.20;76.90;;;;;;4194313;28;20113;-47
2024/03/04 05:35:12;;;;;;;50.00;14.40;;;16.20;77.00;;;;;;4204243;28;20012;-43
2024/03/04 05:37:54;;;;;;;46.15;14.73;;;16.20;77.10;;;;;;4203562;28;20059;-46
2024/03/04 05:40:35;;;;;;;42.90;15.02;;;16.20;76.90;;;;;;4204249;28;20070;-43
2024/03/04 05:43:16;;;;;;;59.85;15.82;;;16.20;76.90;;;;;;4219717;28;20054;-47
2024/03/04 05:45:57;;;;;;;42.05;15.80;;;16.10;76.80;;;;;;4204234;28;20185;-47
2024/03/04 05:48:38;;;;;;;42.22;14.35;;;16.10;77.70;;;;;;4187580;28;20055;-42
2024/03/04 05:51:19;;;;;;;;;;;16.10;76.80;;;;;;4200510;28;20514;-45
2024/03/04 05:54:02;;;;;;;55.80;16.73;;;16.00;77.10;;;;;;4214318;27;19928;-48
2024/03/04 05:56:43;;;;;;;52.10;15.98;;;16.10;77.50;;;;;;4220467;27;20128;-42
2024/03/04 05:59:24;;;;;;;49.78;16.25;;;16.10;77.40;;;;;;4208776;27;20059;-42
2024/03/04 06:02:05;;;;;;;45.95;15.85;;;16.10;77.10;;;;;;4209639;27;20055;-47
2024/03/04 06:04:46;;;;;;;42.70;15.63;;;16.10;77.20;;;;;;4204591;28;20055;-47
2024/03/04 06:07:27;;;;;;;43.22;16.05;;;16.10;77.90;;;;;;4221214;27;20042;-43
2024/03/04 06:10:10;;;;;;;51.72;17.88;;;16.10;77.10;;;;;;4238039;27;20050;-45
2024/03/04 06:12:52;;;;;;;47.35;16.38;;;16.20;77.10;;;;;;4225156;27;20177;-43
2024/03/04 06:15:33;;;;;;;45.50;16.70;;;16.20;77.10;;;;;;4220341;28;20055;-47
2024/03/04 06:18:14;;;;;;;51.67;15.23;;;16.20;77.10;;;;;;4202241;28;20047;-44
2024/03/04 06:20:55;;;;;;;46.85;16.55;;;16.20;77.00;;;;;;4216891;28;20576;-43
2024/03/04 06:23:36;;;;;;;37.22;16.92;;;16.20;77.00;;;;;;4220490;27;20387;-47
2024/03/04 06:26:19;;;;;;;34.05;17.42;;;16.20;76.90;;;;;;4203407;28;20059;-47
2024/03/04 06:29:00;;;;;;;47.63;17.85;;;16.20;77.00;;;;;;4202404;28;20411;-43
2024/03/04 06:31:41;;;;;;;40.00;18.67;;;16.20;77.10;;;;;;4206010;28;20067;-46
2024/03/04 06:34:22;;;;;;;33.40;18.58;;;16.30;77.10;;;;;;4187447;28;20123;-47
2024/03/04 06:37:04;;;;;;;39.53;18.23;;;16.30;76.80;;;;;;4177956;28;20064;-48
2024/03/04 06:39:45;;;;;;;31.08;18.88;;;16.30;76.50;;;;;;4214177;27;20133;-44
2024/03/04 06:42:27;;;;;;;;;;;16.40;76.60;;;;;;4227922;28;20059;-43
2024/03/04 06:45:09;;;;;;;28.50;19.33;;;16.40;76.60;;;;;;4204177;28;19927;-46
2024/03/04 06:47:53;;;;;;;29.70;18.92;;;16.40;76.60;;;;;;4207531;28;20050;-43
2024/03/04 06:50:33;;;;;;;28.15;17.05;;;16.30;76.50;;;;;;4202698;28;20047;-47
2024/03/04 06:53:17;;;;;;;23.05;17.10;;;16.30;76.40;;;;;;4198223;28;20059;-44
2024/03/04 06:55:59;;;;;;;23.85;16.77;;;16.30;76.60;;;;;;4203020;28;20047;-47
2024/03/04 06:58:41;;;;;;;23.83;17.52;;;16.30;76.40;;;;;;4225854;27;20055;-48
2024/03/04 07:01:22;;;;;;;22.30;16.98;;;16.20;76.70;;;;;;4219423;27;20108;-42
2024/03/04 07:04:03;;;;;;;26.03;17.67;;;16.30;76.90;;;;;;4203609;28;20377;-46
2024/03/04 07:06:44;;;;;;;21.83;17.20;;;16.20;76.90;;;;;;4223296;27;20135;-43
2024/03/04 07:09:25;;;;;;;21.58;16.55;;;16.20;76.80;;;;;;4213933;27;20052;-48
2024/03/04 07:12:07;;;;;;;22.15;17.73;;;16.20;76.80;;;;;;4190555;28;20082;-45
2024/03/04 07:14:50;;;;;;;22.38;16.55;;;16.20;76.90;;;;;;4200229;28;20055;-44
2024/03/04 07:17:31;;;;;;;23.58;18.27;;;16.30;76.60;;;;;;4189782;28;20063;-48
2024/03/04 07:20:12;;;;;;;29.25;19.13;;;16.30;75.40;;;;;;4189717;28;20556;-43
2024/03/04 07:22:53;;;;;;;23.38;18.23;;;16.30;75.00;;;;;;4189137;28;20073;-47
2024/03/04 07:25:34;;;;;;;22.30;17.63;;;16.30;74.80;;;;;;4207087;28;20197;-45
2024/03/04 07:28:15;;;;;;;21.35;16.83;;;16.30;74.80;;;;;;4206623;28;20051;-42
2024/03/04 07:30:58;;;;;;;21.92;17.42;;;16.20;74.70;;;;;;4205993;28;20511;-45
2024/03/04 07:33:40;;;;;;;21.55;16.85;;;16.20;74.60;;;;;;4188481;28;20417;-42
2024/03/04 07:36:21;;;;;;;23.95;18.55;;;16.10;74.60;;;;;;4189963;28;20107;-45
2024/03/04 07:39:03;;;;;;;24.45;18.58;;;16.10;74.90;;;;;;4177714;28;20064;-42
2024/03/04 07:41:45;;;;;;;22.88;18.17;;;16.10;75.10;;;;;;4165407;28;20079;-42
2024/03/04 07:44:26;;;;;;;24.50;18.45;;;16.10;75.00;;;;;;4171667;28;20501;-43
2024/03/04 07:47:08;;;;;;;26.65;18.42;;;16.10;74.70;;;;;;4172946;28;20055;-43
2024/03/04 07:49:49;;;;;;;25.70;18.30;;;16.10;74.40;;;;;;4165590;28;20056;-43
2024/03/04 07:52:31;;;;;;;26.27;18.45;;;16.10;74.30;;;;;;4189381;28;20071;-42
2024/03/04 07:55:12;;;;;;;23.38;18.45;;;16.10;74.20;;;;;;4171905;28;20063;-46
2024/03/04 07:57:53;;;;;;;25.50;19.73;;;16.10;74.20;;;;;;4172051;28;20406;-42
2024/03/04 08:00:34;;;;;;;28.90;21.70;;;16.10;74.30;;;;;;4164678;28;20064;-45
2024/03/04 08:03:17;;;;;;;27.95;19.45;;;16.10;74.30;;;;;;4172958;28;20051;-42
2024/03/04 08:05:58;;;;;;;27.60;19.48;;;16.20;74.50;;;;;;4172000;28;20075;-47
2024/03/04 08:08:39;;;;;;;32.80;21.13;;;16.20;74.40;;;;;;4171184;28;20469;-43
2024/03/04 08:11:20;;;;;;;29.40;20.52;;;16.20;74.50;;;;;;4156793;28;20594;-46
2024/03/04 08:14:01;;;;;;;28.05;20.30;;;16.10;74.60;;;;;;4164448;28;20060;-42
2024/03/04 08:16:42;;;;;;;41.58;22.30;;;16.10;74.70;;;;;;4184947;28;20056;-46
2024/03/04 08:19:24;;;;;;;35.53;21.40;;;16.10;74.80;;;;;;4194819;28;20052;-42
2024/03/04 08:22:06;;;;;;;34.90;21.88;;;16.10;75.00;;;;;;4203333;28;20050;-42
2024/03/04 08:24:47;;;;;;;34.80;21.25;;;16.00;75.10;;;;;;4191012;28;20059;-42
2024/03/04 08:27:28;;;;;;;38.45;22.38;;;16.00;75.20;;;;;;4198258;28;20137;-44
2024/03/04 08:30:13;;;;;;;;;;;16.00;75.30;;;;;;4206948;28;20051;-46
2024/03/04 08:32:54;;;;;;;42.38;23.05;;;16.00;75.30;;;;;;4208494;27;19935;-42
2024/03/04 08:35:36;;;;;;;53.17;27.48;;;16.00;75.50;;;;;;4188794;28;20440;-44
2024/03/04 08:38:17;;;;;;;61.53;27.63;;;16.00;75.40;;;;;;4207432;28;20050;-45
2024/03/04 08:40:58;;;;;;;50.75;27.23;;;16.00;75.30;;;;;;4237118;27;20058;-45
2024/03/04 08:43:40;;;;;;;51.08;26.70;;;16.00;75.50;;;;;;4216647;27;20055;-44
2024/03/04 08:46:21;;;;;;;49.20;26.48;;;15.90;75.60;;;;;;4205724;28;20385;-45
2024/03/04 08:49:02;;;;;;;40.75;23.65;;;15.90;75.90;;;;;;4204955;28;20077;-46
2024/03/04 08:51:44;;;;;;;39.50;22.27;;;15.90;75.90;;;;;;4221301;28;20047;-49
2024/03/04 08:54:29;;;;;;;40.45;24.35;;;15.90;76.10;;;;;;4210110;28;20174;-45
2024/03/04 08:57:10;;;;;;;44.15;24.75;;;15.90;76.20;;;;;;4194967;28;20055;-46
2024/03/04 08:59:52;;;;;;;40.33;22.98;;;15.90;76.20;;;;;;4197941;28;20415;-44
2024/03/04 09:02:32;;;;;;;41.50;23.67;;;15.90;76.20;;;;;;4213376;27;20051;-45
2024/03/04 09:05:14;;;;;;;41.15;24.20;;;15.90;76.10;;;;;;4190005;28;20294;-45
2024/03/04 09:07:56;;;;;;;43.88;25.45;;;15.80;76.10;;;;;;4190281;28;20594;-49
2024/03/04 09:10:37;;;;;;;44.03;24.25;;;15.80;76.30;;;;;;4205143;28;20078;-48
2024/03/04 09:13:20;;;;;;;45.03;24.15;;;15.80;76.40;;;;;;4221449;28;20178;-44
2024/03/04 09:16:02;;;;;;;47.75;26.25;;;15.80;76.50;;;;;;4221918;27;20431;-44
2024/03/04 09:18:43;;;;;;;50.60;27.70;;;15.80;76.60;;;;;;4219465;27;20173;-42
2024/03/04 09:21:25;;;;;;;;;;;15.80;76.40;;;;;;4221872;27;20055;-44
2024/03/04 09:24:07;;;;;;;49.03;27.45;;;15.90;76.30;;;;;;4217211;27;19943;-46
2024/03/04 09:26:48;;;;;;;52.40;28.13;;;15.90;76.30;;;;;;4221647;28;20058;-44
2024/03/04 09:29:29;;;;;;;51.45;26.38;;;15.90;76.10;;;;;;4221728;27;20054;-45
2024/03/04 09:32:10;;;;;;;50.42;26.52;;;15.90;76.20;;;;;;4230658;27;20055;-43
2024/03/04 09:34:51;;;;;;;47.88;26.17;;;15.90;76.20;;;;;;4204994;28;20066;-48
2024/03/04 09:37:32;;;;;;;45.03;26.42;;;16.00;75.90;;;;;;4238394;27;20053;-44
2024/03/04 09:40:15;;;;;;;42.05;24.13;;;16.00;75.70;;;;;;4203972;28;20408;-45
2024/03/04 09:42:57;;;;;;;50.35;27.90;;;16.10;75.60;;;;;;4204558;28;20182;-45
2024/03/04 09:45:40;;;;;;;46.95;27.50;;;16.10;75.60;;;;;;4220845;28;20104;-45
2024/03/04 09:48:24;;;;;;;47.67;28.52;;;16.10;75.50;;;;;;4219525;28;20054;-45
2024/03/04 09:51:07;;;;;;;44.83;25.67;;;16.00;75.30;;;;;;4218026;27;20430;-42
2024/03/04 09:53:51;;;;;;;50.00;27.45;;;16.00;75.40;;;;;;4215729;28;20051;-46
2024/03/04 09:56:33;;;;;;;45.72;25.17;;;16.00;75.60;;;;;;4202313;27;20510;-42
2024/03/04 09:59:14;;;;;;;46.22;26.27;;;16.00;75.80;;;;;;4221069;27;20077;-48
2024/03/04 10:01:57;;;;;;;48.38;26.77;;;16.00;75.60;;;;;;4235921;27;20046;-45
2024/03/04 10:04:39;;;;;;;50.78;26.60;;;16.00;75.60;;;;;;4238184;27;20188;-43
2024/03/04 10:07:20;;;;;;;;;;;16.00;75.80;;;;;;4235080;27;20072;-42
2024/03/04 10:10:01;;;;;;;51.15;28.83;;;16.00;75.80;;;;;;4201289;28;19927;-43
2024/03/04 10:12:44;;;;;;;49.95;27.42;;;16.10;75.60;;;;;;4206802;27;20182;-43
2024/03/04 10:15:27;;;;;;;47.45;28.77;;;16.10;75.50;;;;;;4203681;28;20063;-45
2024/03/04 10:18:12;;;;;;;52.35;30.50;;;16.10;75.40;;;;;;4203908;28;20144;-43
2024/03/04 10:20:57;;;;;;;50.75;28.23;;;16.10;75.20;;;;;;4204260;28;20202;-46
2024/03/04 10:23:38;;;;;;;50.88;27.92;;;16.10;75.40;;;;;;4237661;27;20146;-46
2024/03/04 10:26:20;;;;;;;49.75;28.38;;;16.10;75.10;;;;;;4237759;27;20042;-48
2024/03/04 10:29:02;;;;;;;47.08;27.67;;;16.20;75.00;;;;;;4238094;27;20506;-44
2024/03/04 10:31:50;;;;;;;50.10;27.15;;;16.10;75.20;;;;;;4235725;27;20057;-42
2024/03/04 10:34:35;;;;;;;49.13;28.88;;;16.20;75.30;;;;;;4237628;27;20054;-43
2024/03/04 10:37:16;;;;;;;53.60;28.15;;;16.20;75.10;;;;;;4237874;27;20058;-47
2024/03/04 10:39:57;;;;;;;47.92;28.02;;;16.20;75.10;;;;;;4188520;28;20051;-47
2024/03/04 10:42:39;;;;;;;49.85;27.10;;;16.20;76.00;;;;;;4214045;28;20058;-46
2024/03/04 10:45:22;;;;;;;47.65;26.38;;;16.30;75.20;;;;;;4205593;28;20059;-43
2024/03/04 10:48:03;;;;;;;44.80;26.15;;;16.30;75.00;;;;;;4206179;28;20047;-43
2024/03/04 10:50:47;;;;;;;45.50;28.95;;;16.30;74.80;;;;;;4225600;27;20046;-45
2024/03/04 10:53:28;;;;;;;46.55;28.20;;;16.30;74.80;;;;;;4240715;27;20109;-43
2024/03/04 10:56:14;;;;;;;46.70;28.13;;;16.30;74.90;;;;;;4241281;27;20172;-45
2024/03/04 10:58:57;;;;;;;48.53;27.15;;;16.20;74.60;;;;;;4239154;27;20521;-44
2024/03/04 11:01:43;;;;;;;42.03;26.55;;;16.20;74.70;;;;;;4239757;27;20180;-43
2024/03/04 11:04:25;;;;;;;46.50;30.95;;;16.20;75.00;;;;;;4224513;27;20055;-47
2024/03/04 11:07:11;;;;;;;42.38;25.80;;;16.10;75.30;;;;;;4206587;28;20055;-49
2024/03/04 11:09:56;;;;;;;46.13;28.08;;;16.10;75.20;;;;;;4206195;28;20051;-44
2024/03/04 11:12:40;;;;;;;45.28;27.75;;;16.20;75.20;;;;;;4210070;28;20058;-48
2024/03/04 11:15:24;;;;;;;47.50;27.80;;;16.20;75.00;;;;;;4224178;27;20066;-46
2024/03/04 11:18:12;;;;;;;44.30;26.63;;;16.30;75.00;;;;;;4221224;27;20055;-44
2024/03/04 11:20:53;;;;;;;45.97;27.13;;;16.30;74.90;;;;;;4211929;27;20050;-45
2024/03/04 11:23:35;;;;;;;47.78;28.50;;;16.40;74.80;;;;;;4205632;28;20581;-46
2024/03/04 11:26:17;;;;;;;43.83;28.38;;;16.40;74.90;;;;;;4203732;28;20149;-47
2024/03/04 11:29:00;;;;;;;50.10;28.02;;;16.40;74.80;;;;;;4188937;28;20133;-43
2024/03/04 11:31:41;;;;;;;44.47;27.05;;;16.40;74.60;;;;;;4215797;28;20184;-46
2024/03/04 11:34:24;;;;;;;55.35;28.77;;;16.40;74.50;;;;;;4202820;28;20051;-43
2024/03/04 11:37:05;;;;;;;48.78;28.25;;;16.40;74.60;;;;;;4200891;28;20605;-46
2024/03/04 11:39:46;;;;;;;;;;;16.40;74.90;;;;;;4202639;28;21140;-46
2024/03/04 11:42:34;;;;;;;48.38;28.80;;;16.30;75.00;;;;;;4188103;28;19947;-45
2024/03/04 11:45:20;;;;;;;48.58;26.98;;;16.30;75.30;;;;;;4209468;28;20055;-46
2024/03/04 11:48:30;;;;;;;47.35;26.92;;;16.20;75.60;;;;;;4203687;27;20046;-46
2024/03/04 11:51:12;;;;;;;47.67;27.17;;;16.20;75.40;;;;;;4203229;27;20065;-45
2024/03/04 11:53:57;;;;;;;46.25;26.50;;;16.30;75.60;;;;;;4203245;28;20055;-43
2024/03/04 11:56:41;;;;;;;45.50;26.80;;;16.30;75.60;;;;;;4203964;28;20082;-44
2024/03/04 11:59:23;;;;;;;49.60;28.10;;;16.20;75.40;;;;;;4201803;28;20055;-46
2024/03/04 12:02:09;;;;;;;49.72;27.00;;;16.20;75.60;;;;;;4205662;27;20480;-45
2024/03/04 12:04:50;;;;;;;52.65;29.15;;;16.20;75.90;;;;;;4204312;28;20062;-42
2024/03/04 12:07:33;;;;;;;58.30;28.35;;;16.20;75.80;;;;;;4196209;28;20484;-45
2024/03/04 12:10:15;;;;;;;58.20;28.75;;;16.20;75.90;;;;;;4188019;28;20129;-46
2024/03/04 12:12:57;;;;;;;58.42;27.23;;;16.10;75.90;;;;;;4190098;28;20116;-43
2024/03/04 12:15:41;;;;;;;57.00;27.38;;;16.10;76.00;;;;;;4191828;28;20055;-47
2024/03/04 12:18:22;;;;;;;58.40;27.55;;;16.10;76.00;;;;;;4204515;27;20167;-44
2024/03/04 12:21:05;;;;;;;53.65;26.73;;;16.00;76.10;;;;;;4203745;28;20059;-43
2024/03/04 12:23:47;;;;;;;53.78;26.83;;;16.00;76.50;;;;;;4217354;27;20431;-45
2024/03/04 12:26:28;;;;;;;60.47;27.40;;;15.90;76.40;;;;;;4203175;28;20101;-46
2024/03/04 12:29:10;;;;;;;58.10;26.98;;;15.90;76.60;;;;;;4198516;27;20051;-44
2024/03/04 12:31:53;;;;;;;61.97;27.67;;;15.90;76.70;;;;;;4197467;28;20771;-46
2024/03/04 12:34:34;;;;;;;51.22;25.58;;;15.90;76.80;;;;;;4203468;28;20091;-46
2024/03/04 12:37:22;;;;;;;53.38;25.52;;;15.90;76.90;;;;;;4202583;28;20132;-45
2024/03/04 12:40:09;;;;;;;50.10;23.95;;;15.80;77.10;;;;;;4186809;28;20055;-46
2024/03/04 12:42:54;;;;;;;56.50;24.83;;;15.80;77.30;;;;;;4202980;28;20047;-44
2024/03/04 12:45:35;;;;;;;56.38;27.27;;;15.80;77.40;;;;;;4207993;28;20197;-44
2024/03/04 12:48:20;;;;;;;60.55;27.17;;;15.80;77.50;;;;;;4200622;28;20194;-43
2024/03/04 12:51:01;;;;;;;53.25;27.25;;;15.70;77.50;;;;;;4202931;28;20143;-43
2024/03/04 12:53:43;;;;;;;58.17;26.65;;;15.70;77.70;;;;;;4202492;28;20404;-45
2024/03/04 12:56:26;;;;;;;59.70;26.10;;;15.70;77.80;;;;;;4202471;28;20177;-43
2024/03/04 12:59:07;;;;;;;56.20;25.13;;;15.70;78.10;;;;;;4212757;27;20593;-45
2024/03/04 13:01:48;;;;;;;52.92;24.90;;;15.70;77.90;;;;;;4214850;27;20055;-44
2024/03/04 13:04:29;;;;;;;54.17;24.40;;;15.60;78.10;;;;;;4208868;28;20137;-47
2024/03/04 13:07:10;;;;;;;51.05;25.55;;;15.60;78.20;;;;;;4185357;28;20314;-47
2024/03/04 13:09:51;;;;;;;59.28;26.77;;;15.60;78.40;;;;;;4194741;28;20063;-44
2024/03/04 13:12:34;;;;;;;57.05;25.00;;;15.60;78.40;;;;;;4196708;28;20068;-45
2024/03/04 13:15:15;;;;;;;56.25;25.63;;;15.70;78.50;;;;;;4200406;28;20253;-48
2024/03/04 13:17:57;;;;;;;61.70;27.20;;;15.70;78.20;;;;;;4213477;28;20074;-43
2024/03/04 13:20:38;;;;;;;54.90;23.17;;;15.80;78.00;;;;;;4202725;28;20059;-44
2024/03/04 13:23:19;;;;;;;54.20;24.67;;;15.80;77.90;;;;;;4189802;28;20082;-45
2024/03/04 13:26:00;;;;;;;54.67;23.65;;;15.80;77.80;;;;;;4200634;27;20075;-45
2024/03/04 13:28:42;;;;;;;55.67;22.95;;;15.80;77.80;;;;;;4190588;28;20409;-45
2024/03/04 13:31:24;;;;;;;47.08;22.88;;;15.80;77.80;;;;;;4216946;27;20499;-43
2024/03/04 13:34:06;;;;;;;50.28;22.52;;;15.80;77.70;;;;;;4199641;28;20051;-46
2024/03/04 13:36:47;;;;;;;50.15;22.73;;;15.80;77.60;;;;;;4199230;28;20408;-47
2024/03/04 13:39:28;;;;;;;57.88;24.55;;;15.80;77.60;;;;;;4194523;28;20701;-49
2024/03/04 13:42:09;;;;;;;52.42;24.55;;;15.90;77.60;;;;;;4203205;28;20416;-45
2024/03/04 13:44:52;;;;;;;49.03;22.13;;;15.90;77.40;;;;;;4197446;28;20051;-46